New Home, Texas
Current Conditions -  °F | °C
As of 12:19 PM on Saturday 20 Dec 2014 (Local Time) from KLBB Reporting Station
Overcast Overcast  
Wind Chill: 38°   Ceiling: 1000
Heat Index: 44°   Visibility: 8mi
Dew Point: 37°   Wind: 13mph
Humidity: 76%   Direction: 200°SSW
Pressure: 30.12"   Gusts: NA
Location:  33.33°N, 101.91°W
Report Text: KLBB 201819Z 20011KT 8SM OVC010 07/03 A3012 RMK AO2 CIG 009V014 OCNL BINOVC T00670028
Loading
Personal Weather Stations






























Interactive Weather Map New forecast layout! Learn more

10-Day Weather Forecast

Advertisements
Track Severe Weather on mobile